Terminal Aerodrome Forecast
Issued by NWS Buffalo, NY

Home | Current Version | Previous Version | Text Only | Print | Product List | Glossary On
Versions: 1 2 3 4 5 6 7 8 9 10 11 12 13 14 15 16 17 18 19 20 21 22 23 24
000
FTUS41 KBUF 232114 AAA
TAFROC
TAF AMD
KROC 232114Z 2321/2418 28010KT P6SM VCSH BKN060
      TEMPO 2321/2322 5SM -SHRA BKN040
     FM240000 28006KT P6SM BKN045
     FM240400 28006KT P6SM FEW250
     FM241300 26007KT P6SM BKN020
     FM241400 28008KT P6SM VCSH BKN020=

USA.gov is the U.S. government's official web portal to all federal, state and local government web resources and services.